sensor_id;sensor_type;location;lat;lon;timestamp;pressure;altitude;pressure_sealevel;temperature
20730;BMP280;10526;50.850;12.928;2023-05-29T00:03:18;98223.31;;;8.79
20730;BMP280;10526;50.850;12.928;2023-05-29T00:07:41;98220.25;;;8.69
20730;BMP280;10526;50.850;12.928;2023-05-29T00:12:03;98221.75;;;8.67
20730;BMP280;10526;50.850;12.928;2023-05-29T00:16:27;98217.19;;;8.60
20730;BMP280;10526;50.850;12.928;2023-05-29T00:20:51;98218.28;;;8.52
20730;BMP280;10526;50.850;12.928;2023-05-29T00:25:15;98220.88;;;8.41
20730;BMP280;10526;50.850;12.928;2023-05-29T00:29:37;98221.59;;;8.31
20730;BMP280;10526;50.850;12.928;2023-05-29T00:34:01;98214.31;;;8.21
20730;BMP280;10526;50.850;12.928;2023-05-29T00:38:23;98215.06;;;8.14
20730;BMP280;10526;50.850;12.928;2023-05-29T00:42:45;98208.56;;;8.08
20730;BMP280;10526;50.850;12.928;2023-05-29T00:47:07;98205.09;;;8.01
20730;BMP280;10526;50.850;12.928;2023-05-29T00:51:29;98201.69;;;8.00
20730;BMP280;10526;50.850;12.928;2023-05-29T00:55:54;98207.75;;;8.01
20730;BMP280;10526;50.850;12.928;2023-05-29T01:00:17;98213.03;;;7.97
20730;BMP280;10526;50.850;12.928;2023-05-29T01:04:40;98204.25;;;7.89
20730;BMP280;10526;50.850;12.928;2023-05-29T01:09:03;98198.53;;;7.80
20730;BMP280;10526;50.850;12.928;2023-05-29T01:13:29;98208.28;;;7.73
20730;BMP280;10526;50.850;12.928;2023-05-29T01:18:08;98205.28;;;7.74
20730;BMP280;10526;50.850;12.928;2023-05-29T01:23:06;98208.69;;;7.75
20730;BMP280;10526;50.850;12.928;2023-05-29T01:27:30;98207.53;;;7.69
20730;BMP280;10526;50.850;12.928;2023-05-29T01:31:54;98215.03;;;7.63
20730;BMP280;10526;50.850;12.928;2023-05-29T01:36:18;98210.84;;;7.62
20730;BMP280;10526;50.850;12.928;2023-05-29T01:40:40;98205.13;;;7.56
20730;BMP280;10526;50.850;12.928;2023-05-29T01:45:03;98205.81;;;7.50
20730;BMP280;10526;50.850;12.928;2023-05-29T01:49:29;98215.56;;;7.38
20730;BMP280;10526;50.850;12.928;2023-05-29T01:53:52;98207.94;;;7.30
20730;BMP280;10526;50.850;12.928;2023-05-29T01:58:15;98207.09;;;7.22
20730;BMP280;10526;50.850;12.928;2023-05-29T02:02:38;98208.94;;;7.18
20730;BMP280;10526;50.850;12.928;2023-05-29T02:07:01;98203.59;;;7.11
20730;BMP280;10526;50.850;12.928;2023-05-29T02:11:23;98208.94;;;7.18
20730;BMP280;10526;50.850;12.928;2023-05-29T02:15:45;98213.50;;;7.21
20730;BMP280;10526;50.850;12.928;2023-05-29T02:20:08;98206.63;;;7.17
20730;BMP280;10526;50.850;12.928;2023-05-29T02:24:31;98216.00;;;7.07
20730;BMP280;10526;50.850;12.928;2023-05-29T02:28:54;98212.13;;;7.01
20730;BMP280;10526;50.850;12.928;2023-05-29T02:33:17;98219.25;;;6.93
20730;BMP280;10526;50.850;12.928;2023-05-29T02:37:39;98220.72;;;6.91
20730;BMP280;10526;50.850;12.928;2023-05-29T02:42:01;98225.59;;;6.85
20730;BMP280;10526;50.850;12.928;2023-05-29T02:46:23;98210.41;;;6.82
20730;BMP280;10526;50.850;12.928;2023-05-29T02:50:45;98227.06;;;6.82
20730;BMP280;10526;50.850;12.928;2023-05-29T02:55:07;98229.25;;;6.77
20730;BMP280;10526;50.850;12.928;2023-05-29T02:59:30;98228.47;;;6.73
20730;BMP280;10526;50.850;12.928;2023-05-29T03:03:54;98225.50;;;6.78
20730;BMP280;10526;50.850;12.928;2023-05-29T03:08:18;98233.78;;;6.76
20730;BMP280;10526;50.850;12.928;2023-05-29T03:12:40;98231.47;;;6.71
20730;BMP280;10526;50.850;12.928;2023-05-29T03:17:06;98223.19;;;6.73
20730;BMP280;10526;50.850;12.928;2023-05-29T03:21:29;98225.06;;;7.06
20730;BMP280;10526;50.850;12.928;2023-05-29T03:25:54;98227.16;;;7.64
20730;BMP280;10526;50.850;12.928;2023-05-29T03:30:16;98231.47;;;8.34
20730;BMP280;10526;50.850;12.928;2023-05-29T03:34:39;98234.41;;;9.09
20730;BMP280;10526;50.850;12.928;2023-05-29T03:39:03;98244.41;;;9.87
20730;BMP280;10526;50.850;12.928;2023-05-29T03:43:25;98253.66;;;10.74
20730;BMP280;10526;50.850;12.928;2023-05-29T03:47:48;98253.56;;;11.99
20730;BMP280;10526;50.850;12.928;2023-05-29T03:52:10;98257.31;;;13.27
20730;BMP280;10526;50.850;12.928;2023-05-29T03:56:33;98258.88;;;14.34
20730;BMP280;10526;50.850;12.928;2023-05-29T04:00:58;98283.63;;;15.47
20730;BMP280;10526;50.850;12.928;2023-05-29T04:05:23;98275.22;;;16.74
20730;BMP280;10526;50.850;12.928;2023-05-29T04:09:45;98278.00;;;17.55
20730;BMP280;10526;50.850;12.928;2023-05-29T04:14:07;98285.78;;;17.97
20730;BMP280;10526;50.850;12.928;2023-05-29T04:18:29;98294.47;;;18.85
20730;BMP280;10526;50.850;12.928;2023-05-29T04:22:53;98303.59;;;19.73
20730;BMP280;10526;50.850;12.928;2023-05-29T04:27:15;98304.81;;;20.42
20730;BMP280;10526;50.850;12.928;2023-05-29T04:31:38;98309.94;;;20.73
20730;BMP280;10526;50.850;12.928;2023-05-29T04:36:00;98303.59;;;21.77
20730;BMP280;10526;50.850;12.928;2023-05-29T04:40:27;98308.78;;;22.54
20730;BMP280;10526;50.850;12.928;2023-05-29T04:44:49;98318.41;;;23.57
20730;BMP280;10526;50.850;12.928;2023-05-29T04:49:11;98328.47;;;24.34
20730;BMP280;10526;50.850;12.928;2023-05-29T04:53:36;98326.63;;;25.16
20730;BMP280;10526;50.850;12.928;2023-05-29T04:57:58;98326.47;;;25.70
20730;BMP280;10526;50.850;12.928;2023-05-29T05:02:21;98325.91;;;26.44
20730;BMP280;10526;50.850;12.928;2023-05-29T05:06:43;98328.91;;;27.04
20730;BMP280;10526;50.850;12.928;2023-05-29T05:11:06;98339.41;;;28.25
20730;BMP280;10526;50.850;12.928;2023-05-29T05:15:29;98343.78;;;28.96
20730;BMP280;10526;50.850;12.928;2023-05-29T05:19:52;98345.94;;;29.54
20730;BMP280;10526;50.850;12.928;2023-05-29T05:24:16;98357.00;;;30.06
20730;BMP280;10526;50.850;12.928;2023-05-29T05:28:38;98353.47;;;31.06
20730;BMP280;10526;50.850;12.928;2023-05-29T05:33:01;98350.97;;;31.78
20730;BMP280;10526;50.850;12.928;2023-05-29T05:37:23;98356.44;;;31.49
20730;BMP280;10526;50.850;12.928;2023-05-29T05:41:45;98356.75;;;31.66
20730;BMP280;10526;50.850;12.928;2023-05-29T05:46:13;98363.78;;;32.83
20730;BMP280;10526;50.850;12.928;2023-05-29T05:50:36;98371.41;;;33.28
20730;BMP280;10526;50.850;12.928;2023-05-29T05:54:58;98376.25;;;34.21
20730;BMP280;10526;50.850;12.928;2023-05-29T05:59:22;98379.38;;;35.22
20730;BMP280;10526;50.850;12.928;2023-05-29T06:03:45;98386.59;;;35.42
20730;BMP280;10526;50.850;12.928;2023-05-29T06:08:07;98384.78;;;35.37
20730;BMP280;10526;50.850;12.928;2023-05-29T06:12:30;98379.44;;;35.57
20730;BMP280;10526;50.850;12.928;2023-05-29T06:17:03;98389.28;;;36.63
20730;BMP280;10526;50.850;12.928;2023-05-29T06:21:26;98396.03;;;37.15
20730;BMP280;10526;50.850;12.928;2023-05-29T06:25:49;98388.13;;;37.02
20730;BMP280;10526;50.850;12.928;2023-05-29T06:30:12;98396.81;;;37.26
20730;BMP280;10526;50.850;12.928;2023-05-29T06:34:35;98399.41;;;36.68
20730;BMP280;10526;50.850;12.928;2023-05-29T06:38:57;98404.31;;;37.42
20730;BMP280;10526;50.850;12.928;2023-05-29T06:43:20;98397.56;;;37.26
20730;BMP280;10526;50.850;12.928;2023-05-29T06:47:43;98410.38;;;37.96
20730;BMP280;10526;50.850;12.928;2023-05-29T06:52:06;98417.03;;;40.21
20730;BMP280;10526;50.850;12.928;2023-05-29T06:56:57;98414.91;;;40.78
20730;BMP280;10526;50.850;12.928;2023-05-29T07:01:32;98431.44;;;40.97
20730;BMP280;10526;50.850;12.928;2023-05-29T07:05:58;98431.16;;;42.43
20730;BMP280;10526;50.850;12.928;2023-05-29T07:10:20;98428.22;;;42.27
20730;BMP280;10526;50.850;12.928;2023-05-29T07:14:42;98436.97;;;42.47
20730;BMP280;10526;50.850;12.928;2023-05-29T07:19:04;98430.53;;;42.85
20730;BMP280;10526;50.850;12.928;2023-05-29T07:23:32;98443.06;;;43.11
20730;BMP280;10526;50.850;12.928;2023-05-29T07:27:55;98447.81;;;43.22
20730;BMP280;10526;50.850;12.928;2023-05-29T07:32:21;98443.31;;;42.88
20730;BMP280;10526;50.850;12.928;2023-05-29T07:37:03;98445.22;;;43.13
20730;BMP280;10526;50.850;12.928;2023-05-29T07:41:28;98451.56;;;44.48
20730;BMP280;10526;50.850;12.928;2023-05-29T07:45:50;98453.50;;;44.12
20730;BMP280;10526;50.850;12.928;2023-05-29T07:50:15;98455.75;;;44.63
20730;BMP280;10526;50.850;12.928;2023-05-29T07:54:37;98456.94;;;43.95
20730;BMP280;10526;50.850;12.928;2023-05-29T07:59:02;98455.44;;;42.93
20730;BMP280;10526;50.850;12.928;2023-05-29T08:03:25;98459.25;;;43.27
20730;BMP280;10526;50.850;12.928;2023-05-29T08:08:06;98453.28;;;40.66
20730;BMP280;10526;50.850;12.928;2023-05-29T08:12:30;98464.34;;;40.87
20730;BMP280;10526;50.850;12.928;2023-05-29T08:16:56;98466.00;;;43.21
20730;BMP280;10526;50.850;12.928;2023-05-29T08:21:19;98471.16;;;44.95
20730;BMP280;10526;50.850;12.928;2023-05-29T08:25:42;98464.25;;;44.65
20730;BMP280;10526;50.850;12.928;2023-05-29T08:30:05;98470.66;;;43.74
20730;BMP280;10526;50.850;12.928;2023-05-29T08:34:27;98461.84;;;42.27
20730;BMP280;10526;50.850;12.928;2023-05-29T08:38:49;98462.41;;;42.78
20730;BMP280;10526;50.850;12.928;2023-05-29T08:43:16;98463.97;;;42.54
20730;BMP280;10526;50.850;12.928;2023-05-29T08:47:40;98461.81;;;41.76
20730;BMP280;10526;50.850;12.928;2023-05-29T08:52:19;98458.66;;;42.60
20730;BMP280;10526;50.850;12.928;2023-05-29T08:56:42;98462.34;;;41.73
20730;BMP280;10526;50.850;12.928;2023-05-29T09:01:04;98465.53;;;41.67
20730;BMP280;10526;50.850;12.928;2023-05-29T09:05:27;98470.94;;;41.52
20730;BMP280;10526;50.850;12.928;2023-05-29T09:09:51;98471.75;;;40.15
20730;BMP280;10526;50.850;12.928;2023-05-29T09:14:39;98468.59;;;40.76
20730;BMP280;10526;50.850;12.928;2023-05-29T09:19:06;98474.41;;;40.45
20730;BMP280;10526;50.850;12.928;2023-05-29T09:23:28;98462.88;;;39.21
20730;BMP280;10526;50.850;12.928;2023-05-29T09:28:02;98462.72;;;39.29
20730;BMP280;10526;50.850;12.928;2023-05-29T09:32:25;98462.69;;;39.60
20730;BMP280;10526;50.850;12.928;2023-05-29T09:37:02;98474.09;;;40.30
20730;BMP280;10526;50.850;12.928;2023-05-29T09:41:30;98469.38;;;39.45
20730;BMP280;10526;50.850;12.928;2023-05-29T09:45:55;98477.25;;;40.24
20730;BMP280;10526;50.850;12.928;2023-05-29T09:50:19;98482.41;;;39.21
20730;BMP280;10526;50.850;12.928;2023-05-29T09:54:44;98471.81;;;37.62
20730;BMP280;10526;50.850;12.928;2023-05-29T09:59:12;98480.91;;;36.46
20730;BMP280;10526;50.850;12.928;2023-05-29T10:03:34;98472.28;;;38.86
20730;BMP280;10526;50.850;12.928;2023-05-29T10:07:57;98472.28;;;38.16
20730;BMP280;10526;50.850;12.928;2023-05-29T10:12:20;98467.19;;;38.82
20730;BMP280;10526;50.850;12.928;2023-05-29T10:16:43;98477.81;;;40.11
20730;BMP280;10526;50.850;12.928;2023-05-29T10:21:07;98471.63;;;41.64
20730;BMP280;10526;50.850;12.928;2023-05-29T10:25:33;98476.97;;;41.11
20730;BMP280;10526;50.850;12.928;2023-05-29T10:30:12;98463.66;;;38.81
20730;BMP280;10526;50.850;12.928;2023-05-29T10:35:29;98463.50;;;38.01
20730;BMP280;10526;50.850;12.928;2023-05-29T10:39:53;98477.59;;;39.86
20730;BMP280;10526;50.850;12.928;2023-05-29T10:48:54;98462.88;;;37.54
20730;BMP280;10526;50.850;12.928;2023-05-29T10:53:26;98453.09;;;35.10
20730;BMP280;10526;50.850;12.928;2023-05-29T10:57:48;98448.66;;;34.42
20730;BMP280;10526;50.850;12.928;2023-05-29T11:02:11;98447.47;;;33.98
20730;BMP280;10526;50.850;12.928;2023-05-29T11:06:35;98443.22;;;32.69
20730;BMP280;10526;50.850;12.928;2023-05-29T11:10:59;98426.56;;;30.80
20730;BMP280;10526;50.850;12.928;2023-05-29T11:15:21;98415.19;;;29.28
20730;BMP280;10526;50.850;12.928;2023-05-29T11:19:43;98414.75;;;28.62
20730;BMP280;10526;50.850;12.928;2023-05-29T11:24:06;98421.81;;;27.15
20730;BMP280;10526;50.850;12.928;2023-05-29T11:28:29;98420.19;;;25.56
20730;BMP280;10526;50.850;12.928;2023-05-29T11:32:52;98413.25;;;24.21
20730;BMP280;10526;50.850;12.928;2023-05-29T11:37:15;98410.06;;;23.97
20730;BMP280;10526;50.850;12.928;2023-05-29T11:41:37;98408.84;;;23.52
20730;BMP280;10526;50.850;12.928;2023-05-29T11:45:59;98405.03;;;23.90
20730;BMP280;10526;50.850;12.928;2023-05-29T11:50:32;98401.97;;;24.66
20730;BMP280;10526;50.850;12.928;2023-05-29T11:54:55;98414.91;;;24.82
20730;BMP280;10526;50.850;12.928;2023-05-29T11:59:33;98411.59;;;23.78
20730;BMP280;10526;50.850;12.928;2023-05-29T12:03:56;98414.28;;;23.52
20730;BMP280;10526;50.850;12.928;2023-05-29T12:08:22;98404.22;;;23.38
20730;BMP280;10526;50.850;12.928;2023-05-29T12:12:52;98403.34;;;23.46
20730;BMP280;10526;50.850;12.928;2023-05-29T12:17:15;98394.16;;;23.90
20730;BMP280;10526;50.850;12.928;2023-05-29T12:21:41;98402.00;;;23.82
20730;BMP280;10526;50.850;12.928;2023-05-29T12:26:05;98400.19;;;23.74
20730;BMP280;10526;50.850;12.928;2023-05-29T12:30:27;98402.06;;;23.62
20730;BMP280;10526;50.850;12.928;2023-05-29T12:34:55;98398.66;;;23.47
20730;BMP280;10526;50.850;12.928;2023-05-29T12:39:17;98405.00;;;23.64
20730;BMP280;10526;50.850;12.928;2023-05-29T12:43:39;98400.63;;;23.46
20730;BMP280;10526;50.850;12.928;2023-05-29T12:48:03;98384.66;;;24.06
20730;BMP280;10526;50.850;12.928;2023-05-29T12:52:26;98392.09;;;24.37
20730;BMP280;10526;50.850;12.928;2023-05-29T12:56:48;98393.34;;;23.58
20730;BMP280;10526;50.850;12.928;2023-05-29T13:01:14;98379.44;;;23.50
20730;BMP280;10526;50.850;12.928;2023-05-29T13:05:36;98365.03;;;23.96
20730;BMP280;10526;50.850;12.928;2023-05-29T13:09:59;98383.50;;;24.18
20730;BMP280;10526;50.850;12.928;2023-05-29T13:14:23;98378.34;;;23.68
20730;BMP280;10526;50.850;12.928;2023-05-29T13:18:46;98376.16;;;23.06
20730;BMP280;10526;50.850;12.928;2023-05-29T13:23:08;98378.13;;;23.05
20730;BMP280;10526;50.850;12.928;2023-05-29T13:27:30;98379.50;;;23.36
20730;BMP280;10526;50.850;12.928;2023-05-29T13:31:53;98365.13;;;23.15
20730;BMP280;10526;50.850;12.928;2023-05-29T13:36:15;98367.00;;;23.23
20730;BMP280;10526;50.850;12.928;2023-05-29T13:40:37;98362.75;;;23.22
20730;BMP280;10526;50.850;12.928;2023-05-29T13:44:59;98372.13;;;23.62
20730;BMP280;10526;50.850;12.928;2023-05-29T13:49:21;98366.19;;;24.15
20730;BMP280;10526;50.850;12.928;2023-05-29T13:53:44;98361.22;;;24.45
20730;BMP280;10526;50.850;12.928;2023-05-29T13:58:06;98357.00;;;24.87
20730;BMP280;10526;50.850;12.928;2023-05-29T14:02:28;98350.84;;;24.98
20730;BMP280;10526;50.850;12.928;2023-05-29T14:06:52;98353.84;;;25.05
20730;BMP280;10526;50.850;12.928;2023-05-29T14:11:14;98343.69;;;25.00
20730;BMP280;10526;50.850;12.928;2023-05-29T14:15:36;98356.19;;;24.75
20730;BMP280;10526;50.850;12.928;2023-05-29T14:20:01;98345.78;;;24.79
20730;BMP280;10526;50.850;12.928;2023-05-29T14:24:27;98346.63;;;24.97
20730;BMP280;10526;50.850;12.928;2023-05-29T14:28:49;98356.06;;;25.01
20730;BMP280;10526;50.850;12.928;2023-05-29T14:33:20;98357.59;;;25.13
20730;BMP280;10526;50.850;12.928;2023-05-29T14:37:42;98350.50;;;24.79
20730;BMP280;10526;50.850;12.928;2023-05-29T14:42:05;98351.38;;;24.22
20730;BMP280;10526;50.850;12.928;2023-05-29T14:46:28;98357.44;;;24.37
20730;BMP280;10526;50.850;12.928;2023-05-29T14:50:54;98344.00;;;24.71
20730;BMP280;10526;50.850;12.928;2023-05-29T14:55:16;98348.84;;;24.92
20730;BMP280;10526;50.850;12.928;2023-05-29T14:59:38;98352.13;;;25.13
20730;BMP280;10526;50.850;12.928;2023-05-29T15:04:00;98351.50;;;25.46
20730;BMP280;10526;50.850;12.928;2023-05-29T15:08:25;98348.56;;;25.67
20730;BMP280;10526;50.850;12.928;2023-05-29T15:12:49;98347.53;;;25.42
20730;BMP280;10526;50.850;12.928;2023-05-29T15:17:11;98341.75;;;25.12
20730;BMP280;10526;50.850;12.928;2023-05-29T15:21:34;98343.03;;;25.27
20730;BMP280;10526;50.850;12.928;2023-05-29T15:25:56;98347.19;;;25.17
20730;BMP280;10526;50.850;12.928;2023-05-29T15:30:20;98348.06;;;24.81
20730;BMP280;10526;50.850;12.928;2023-05-29T15:34:42;98349.97;;;24.75
20730;BMP280;10526;50.850;12.928;2023-05-29T15:39:06;98343.06;;;24.37
20730;BMP280;10526;50.850;12.928;2023-05-29T15:43:30;98338.38;;;23.74
20730;BMP280;10526;50.850;12.928;2023-05-29T15:47:54;98334.63;;;23.46
20730;BMP280;10526;50.850;12.928;2023-05-29T15:52:16;98337.16;;;23.29
20730;BMP280;10526;50.850;12.928;2023-05-29T15:56:39;98326.78;;;23.27
20730;BMP280;10526;50.850;12.928;2023-05-29T16:01:01;98331.50;;;22.92
20730;BMP280;10526;50.850;12.928;2023-05-29T16:05:24;98333.81;;;22.79
20730;BMP280;10526;50.850;12.928;2023-05-29T16:09:47;98324.13;;;22.57
20730;BMP280;10526;50.850;12.928;2023-05-29T16:14:09;98330.09;;;22.26
20730;BMP280;10526;50.850;12.928;2023-05-29T16:18:32;98329.91;;;22.30
20730;BMP280;10526;50.850;12.928;2023-05-29T16:22:54;98333.16;;;22.34
20730;BMP280;10526;50.850;12.928;2023-05-29T16:27:18;98327.00;;;22.19
20730;BMP280;10526;50.850;12.928;2023-05-29T16:31:41;98326.63;;;22.11
20730;BMP280;10526;50.850;12.928;2023-05-29T16:36:04;98321.94;;;22.12
20730;BMP280;10526;50.850;12.928;2023-05-29T16:40:26;98323.91;;;22.11
20730;BMP280;10526;50.850;12.928;2023-05-29T16:44:48;98319.91;;;22.07
20730;BMP280;10526;50.850;12.928;2023-05-29T16:49:14;98330.47;;;21.90
20730;BMP280;10526;50.850;12.928;2023-05-29T16:53:36;98334.09;;;21.72
20730;BMP280;10526;50.850;12.928;2023-05-29T16:57:59;98331.13;;;21.70
20730;BMP280;10526;50.850;12.928;2023-05-29T17:02:22;98334.84;;;21.34
20730;BMP280;10526;50.850;12.928;2023-05-29T17:06:44;98336.69;;;21.04
20730;BMP280;10526;50.850;12.928;2023-05-29T17:11:08;98329.19;;;20.75
20730;BMP280;10526;50.850;12.928;2023-05-29T17:15:30;98334.66;;;20.57
20730;BMP280;10526;50.850;12.928;2023-05-29T17:19:53;98331.88;;;20.42
20730;BMP280;10526;50.850;12.928;2023-05-29T17:24:15;98332.84;;;20.21
20730;BMP280;10526;50.850;12.928;2023-05-29T17:28:38;98326.69;;;20.02
20730;BMP280;10526;50.850;12.928;2023-05-29T17:33:00;98335.13;;;19.86
20730;BMP280;10526;50.850;12.928;2023-05-29T17:37:24;98339.00;;;19.66
20730;BMP280;10526;50.850;12.928;2023-05-29T17:41:49;98339.75;;;19.49
20730;BMP280;10526;50.850;12.928;2023-05-29T17:46:11;98338.56;;;19.40
20730;BMP280;10526;50.850;12.928;2023-05-29T17:50:34;98338.84;;;19.33
20730;BMP280;10526;50.850;12.928;2023-05-29T17:54:58;98345.88;;;19.31
20730;BMP280;10526;50.850;12.928;2023-05-29T17:59:21;98355.63;;;19.28
20730;BMP280;10526;50.850;12.928;2023-05-29T18:03:43;98356.97;;;19.14
20730;BMP280;10526;50.850;12.928;2023-05-29T18:08:05;98361.72;;;19.01
20730;BMP280;10526;50.850;12.928;2023-05-29T18:12:27;98366.88;;;18.87
20730;BMP280;10526;50.850;12.928;2023-05-29T18:17:06;98368.47;;;18.66
20730;BMP280;10526;50.850;12.928;2023-05-29T18:21:29;98369.66;;;18.43
20730;BMP280;10526;50.850;12.928;2023-05-29T18:25:52;98375.41;;;18.23
20730;BMP280;10526;50.850;12.928;2023-05-29T18:30:16;98368.78;;;18.02
20730;BMP280;10526;50.850;12.928;2023-05-29T18:34:39;98376.75;;;17.84
20730;BMP280;10526;50.850;12.928;2023-05-29T18:39:01;98373.88;;;17.66
20730;BMP280;10526;50.850;12.928;2023-05-29T18:43:24;98368.75;;;17.46
20730;BMP280;10526;50.850;12.928;2023-05-29T18:47:46;98367.00;;;17.26
20730;BMP280;10526;50.850;12.928;2023-05-29T18:52:08;98364.44;;;17.10
20730;BMP280;10526;50.850;12.928;2023-05-29T18:56:31;98378.06;;;16.90
20730;BMP280;10526;50.850;12.928;2023-05-29T19:00:53;98378.63;;;16.73
20730;BMP280;10526;50.850;12.928;2023-05-29T19:05:15;98391.34;;;16.56
20730;BMP280;10526;50.850;12.928;2023-05-29T19:09:41;98398.31;;;16.40
20730;BMP280;10526;50.850;12.928;2023-05-29T19:14:05;98394.91;;;16.24
20730;BMP280;10526;50.850;12.928;2023-05-29T19:18:27;98403.75;;;16.08
20730;BMP280;10526;50.850;12.928;2023-05-29T19:22:54;98407.81;;;16.00
20730;BMP280;10526;50.850;12.928;2023-05-29T19:27:18;98416.84;;;15.90
20730;BMP280;10526;50.850;12.928;2023-05-29T19:31:41;98422.47;;;15.79
20730;BMP280;10526;50.850;12.928;2023-05-29T19:36:04;98429.63;;;15.69
20730;BMP280;10526;50.850;12.928;2023-05-29T19:40:26;98428.59;;;15.63
20730;BMP280;10526;50.850;12.928;2023-05-29T19:44:51;98424.59;;;15.55
20730;BMP280;10526;50.850;12.928;2023-05-29T19:49:17;98433.19;;;15.46
20730;BMP280;10526;50.850;12.928;2023-05-29T19:53:39;98438.47;;;15.34
20730;BMP280;10526;50.850;12.928;2023-05-29T19:58:02;98439.09;;;15.21
20730;BMP280;10526;50.850;12.928;2023-05-29T20:02:25;98443.22;;;15.06
20730;BMP280;10526;50.850;12.928;2023-05-29T20:06:54;98450.25;;;15.00
20730;BMP280;10526;50.850;12.928;2023-05-29T20:11:16;98441.16;;;14.94
20730;BMP280;10526;50.850;12.928;2023-05-29T20:15:38;98450.84;;;14.88
20730;BMP280;10526;50.850;12.928;2023-05-29T20:20:00;98450.94;;;14.84
20730;BMP280;10526;50.850;12.928;2023-05-29T20:24:25;98449.16;;;14.78
20730;BMP280;10526;50.850;12.928;2023-05-29T20:28:48;98440.06;;;14.72
20730;BMP280;10526;50.850;12.928;2023-05-29T20:33:10;98456.75;;;14.59
20730;BMP280;10526;50.850;12.928;2023-05-29T20:37:32;98461.13;;;14.50
20730;BMP280;10526;50.850;12.928;2023-05-29T20:41:55;98463.94;;;14.43
20730;BMP280;10526;50.850;12.928;2023-05-29T20:46:20;98462.47;;;14.38
20730;BMP280;10526;50.850;12.928;2023-05-29T20:50:44;98458.38;;;14.33
20730;BMP280;10526;50.850;12.928;2023-05-29T20:55:06;98461.63;;;14.21
20730;BMP280;10526;50.850;12.928;2023-05-29T20:59:28;98459.47;;;14.13
20730;BMP280;10526;50.850;12.928;2023-05-29T21:03:52;98464.13;;;14.09
20730;BMP280;10526;50.850;12.928;2023-05-29T21:08:16;98470.28;;;14.05
20730;BMP280;10526;50.850;12.928;2023-05-29T21:12:38;98470.34;;;14.02
20730;BMP280;10526;50.850;12.928;2023-05-29T21:17:01;98465.84;;;13.95
20730;BMP280;10526;50.850;12.928;2023-05-29T21:21:23;98462.50;;;13.88
20730;BMP280;10526;50.850;12.928;2023-05-29T21:25:45;98467.56;;;13.82
20730;BMP280;10526;50.850;12.928;2023-05-29T21:30:08;98464.56;;;13.76
20730;BMP280;10526;50.850;12.928;2023-05-29T21:34:31;98463.13;;;13.72
20730;BMP280;10526;50.850;12.928;2023-05-29T21:38:55;98471.56;;;13.70
20730;BMP280;10526;50.850;12.928;2023-05-29T21:43:17;98472.75;;;13.66
20730;BMP280;10526;50.850;12.928;2023-05-29T21:47:39;98480.44;;;13.64
20730;BMP280;10526;50.850;12.928;2023-05-29T21:52:03;98479.72;;;13.60
20730;BMP280;10526;50.850;12.928;2023-05-29T21:56:25;98483.66;;;13.52
20730;BMP280;10526;50.850;12.928;2023-05-29T22:00:48;98482.56;;;13.45
20730;BMP280;10526;50.850;12.928;2023-05-29T22:05:10;98481.84;;;13.41
20730;BMP280;10526;50.850;12.928;2023-05-29T22:09:33;98487.28;;;13.34
20730;BMP280;10526;50.850;12.928;2023-05-29T22:13:57;98496.50;;;13.30
20730;BMP280;10526;50.850;12.928;2023-05-29T22:18:19;98498.47;;;13.26
20730;BMP280;10526;50.850;12.928;2023-05-29T22:22:42;98499.66;;;13.21
20730;BMP280;10526;50.850;12.928;2023-05-29T22:27:07;98500.81;;;13.20
20730;BMP280;10526;50.850;12.928;2023-05-29T22:31:29;98497.47;;;13.12
20730;BMP280;10526;50.850;12.928;2023-05-29T22:35:51;98502.94;;;13.02
20730;BMP280;10526;50.850;12.928;2023-05-29T22:40:13;98506.47;;;12.91
20730;BMP280;10526;50.850;12.928;2023-05-29T22:44:36;98505.47;;;12.78
20730;BMP280;10526;50.850;12.928;2023-05-29T22:48:59;98498.72;;;12.63
20730;BMP280;10526;50.850;12.928;2023-05-29T22:53:21;98508.75;;;12.52
20730;BMP280;10526;50.850;12.928;2023-05-29T22:57:45;98508.78;;;12.41
20730;BMP280;10526;50.850;12.928;2023-05-29T23:02:07;98501.22;;;12.32
20730;BMP280;10526;50.850;12.928;2023-05-29T23:06:30;98499.00;;;12.20
20730;BMP280;10526;50.850;12.928;2023-05-29T23:10:55;98496.44;;;12.06
20730;BMP280;10526;50.850;12.928;2023-05-29T23:15:18;98489.28;;;11.96
20730;BMP280;10526;50.850;12.928;2023-05-29T23:19:39;98496.59;;;11.81
20730;BMP280;10526;50.850;12.928;2023-05-29T23:24:02;98494.72;;;11.67
20730;BMP280;10526;50.850;12.928;2023-05-29T23:28:24;98491.38;;;11.56
20730;BMP280;10526;50.850;12.928;2023-05-29T23:32:46;98493.28;;;11.45
20730;BMP280;10526;50.850;12.928;2023-05-29T23:37:08;98491.06;;;11.33
20730;BMP280;10526;50.850;12.928;2023-05-29T23:41:31;98490.31;;;11.21
20730;BMP280;10526;50.850;12.928;2023-05-29T23:45:53;98494.91;;;11.14
20730;BMP280;10526;50.850;12.928;2023-05-29T23:50:16;98493.41;;;11.09
20730;BMP280;10526;50.850;12.928;2023-05-29T23:54:38;98489.59;;;11.03
20730;BMP280;10526;50.850;12.928;2023-05-29T23:59:00;98488.47;;;10.97
